Time;durP1;ratioP1;P1;durP2;ratioP2;P2;SDS_P1;SDS_P2;PMS_P1;PMS_P2;Temp;Humidity;BMP_temperature;BMP_pressure;BME280_temperature;BME280_humidity;BME280_pressure;Samples;Min_cycle;Max_cycle;Signal;HPM_P1;HPM_P2
2021/06/14 00:02:01;;;;;;;2.95;2.25;;;;;;;15.91;82.54;97358.72;5094946;28;20114;-81
2021/06/14 00:04:26;;;;;;;6.40;2.50;;;;;;;15.85;81.08;97353.00;5113162;28;20563;-81
2021/06/14 00:06:52;;;;;;;3.90;2.65;;;;;;;15.92;82.56;97370.38;5094454;28;20031;-80
2021/06/14 00:09:21;;;;;;;3.33;2.22;;;;;;;15.84;83.68;97375.59;5112716;28;20051;-81
2021/06/14 00:11:47;;;;;;;12.63;2.58;;;;;;;15.67;84.39;97361.72;5113174;28;20543;-81
2021/06/14 00:14:13;;;;;;;5.63;3.10;;;;;;;15.62;86.03;97369.34;5111439;28;20110;-81
2021/06/14 00:16:39;;;;;;;6.20;2.60;;;;;;;15.61;86.90;97370.31;5112126;28;20462;-81
2021/06/14 00:19:06;;;;;;;5.25;2.75;;;;;;;15.66;89.58;97378.00;5111315;28;20027;-80
2021/06/14 00:21:31;;;;;;;5.97;4.00;;;;;;;15.70;91.81;97380.31;5094693;28;20050;-81
2021/06/14 00:23:57;;;;;;;3.28;2.67;;;;;;;15.76;93.73;97383.47;5094621;28;20546;-81
2021/06/14 00:26:23;;;;;;;3.00;2.63;;;;;;;15.72;89.82;97380.19;5111206;28;20023;-81
2021/06/14 00:28:48;;;;;;;2.92;2.60;;;;;;;15.62;89.91;97355.00;5111750;28;20030;-81
2021/06/14 00:31:14;;;;;;;4.70;2.70;;;;;;;15.77;89.89;97374.41;5094374;28;20031;-81
2021/06/14 00:33:40;;;;;;;3.50;2.63;;;;;;;15.77;89.18;97375.25;5111751;28;20062;-82
2021/06/14 00:36:07;;;;;;;8.30;3.00;;;;;;;15.72;88.43;97375.63;5093981;28;20089;-81
2021/06/14 00:38:33;;;;;;;10.57;3.22;;;;;;;15.67;89.05;97364.41;5111341;28;20097;-81
2021/06/14 00:41:00;;;;;;;4.13;3.00;;;;;;;15.65;90.59;97358.28;5111342;28;20486;-81
2021/06/14 00:43:26;;;;;;;3.53;2.55;;;;;;;15.52;89.16;97333.34;5111205;28;20088;-81
2021/06/14 00:45:53;;;;;;;6.47;2.70;;;;;;;15.52;89.54;97344.13;5111680;28;20030;-81
2021/06/14 00:48:19;;;;;;;2.83;2.53;;;;;;;15.44;88.52;97346.59;5094167;28;20529;-81
2021/06/14 00:50:49;;;;;;;7.40;2.63;;;;;;;15.48;89.61;97364.25;5111516;28;20032;-81
2021/06/14 00:53:29;;;;;;;8.05;3.53;;;;;;;15.39;90.46;97356.03;5111484;28;20401;-81
2021/06/14 00:55:55;;;;;;;4.63;2.97;;;;;;;15.25;88.71;97330.28;5112464;28;20060;-80
2021/06/14 00:58:21;;;;;;;5.93;3.60;;;;;;;15.33;91.87;97348.47;5110805;28;20019;-81
2021/06/14 01:00:47;;;;;;;9.98;2.72;;;;;;;15.33;92.63;97359.25;5111143;28;20043;-80
2021/06/14 01:03:13;;;;;;;6.82;2.83;;;;;;;15.27;90.73;97351.69;5110905;28;20039;-80
2021/06/14 01:05:45;;;;;;;5.90;2.70;;;;;;;15.30;91.82;97365.75;5110962;28;20036;-81
2021/06/14 01:08:11;;;;;;;3.78;2.60;;;;;;;15.15;92.17;97340.97;5111172;28;20031;-81
2021/06/14 01:10:38;;;;;;;6.07;2.80;;;;;;;15.39;90.88;97369.53;5094045;28;20043;-81
2021/06/14 01:13:27;;;;;;;6.65;2.70;;;;;;;15.28;92.68;97348.03;5115027;28;20102;-80
2021/06/14 01:16:19;;;;;;;6.15;3.53;;;;;;;15.41;92.96;97364.88;5115443;28;20038;-81
2021/06/14 01:19:11;;;;;;;4.50;2.38;;;;;;;15.34;90.17;97361.84;5097792;28;20028;-82
2021/06/14 01:21:40;;;;;;;13.30;3.00;;;;;;;15.39;91.22;97370.38;5098464;28;20061;-81
2021/06/14 01:24:23;;;;;;;5.03;2.58;;;;;;;15.40;92.34;97372.09;5116213;28;20027;-81
2021/06/14 01:27:07;;;;;;;10.05;3.45;;;;;;;15.47;94.11;97369.75;5116366;28;20058;-81
2021/06/14 01:29:35;;;;;;;6.38;3.03;;;;;;;15.37;91.48;97356.19;5116155;28;20083;-81
2021/06/14 01:32:01;;;;;;;7.57;3.08;;;;;;;15.45;90.65;97369.88;5114907;28;20028;-81
2021/06/14 01:34:29;;;;;;;7.38;3.08;;;;;;;15.45;92.78;97364.47;5097520;28;20030;-81
2021/06/14 01:36:57;;;;;;;7.35;3.13;;;;;;;15.51;91.66;97364.00;5115111;28;20012;-81
2021/06/14 01:39:24;;;;;;;4.93;2.80;;;;;;;15.42;90.77;97353.09;5113992;28;20130;-81
2021/06/14 01:41:50;;;;;;;3.90;2.67;;;;;;;15.40;89.05;97355.94;5114348;28;20031;-81
2021/06/14 01:44:16;;;;;;;5.63;2.63;;;;;;;15.19;89.71;97325.41;5114605;28;20119;-81
2021/06/14 01:46:43;;;;;;;8.77;2.50;;;;;;;15.22;88.63;97332.38;5114658;28;20084;-81
2021/06/14 01:49:09;;;;;;;5.82;2.80;;;;;;;15.19;88.62;97333.47;5114931;28;20062;-80
2021/06/14 01:51:38;;;;;;;6.75;3.00;;;;;;;15.31;88.03;97359.41;5097540;28;20080;-81
2021/06/14 01:54:06;;;;;;;4.75;2.80;;;;;;;15.12;88.48;97318.81;5114393;28;20027;-80
2021/06/14 01:56:34;;;;;;;6.57;2.95;;;;;;;15.24;90.06;97354.63;5114189;28;20027;-80
2021/06/14 01:59:01;;;;;;;4.85;2.60;;;;;;;15.17;91.37;97347.06;5114253;28;20027;-80
2021/06/14 02:01:28;;;;;;;3.85;2.78;;;;;;;15.05;90.06;97328.38;5096840;28;20032;-80
2021/06/14 02:03:56;;;;;;;6.80;2.25;;;;;;;15.00;90.36;97326.09;5114124;28;20022;-80
2021/06/14 02:06:22;;;;;;;2.88;2.50;;;;;;;14.97;91.40;97333.56;5114193;28;20069;-80
2021/06/14 02:08:48;;;;;;;3.13;2.70;;;;;;;14.94;92.04;97341.88;5114669;28;20019;-80
2021/06/14 02:11:13;;;;;;;7.60;3.28;;;;;;;14.90;93.21;97346.66;5115148;28;20468;-80
2021/06/14 02:13:39;;;;;;;5.85;2.90;;;;;;;14.82;95.43;97337.53;5113986;28;20106;-81
2021/06/14 02:16:05;;;;;;;17.48;4.28;;;;;;;14.76;96.65;97327.25;5097450;28;20023;-81
2021/06/14 02:18:30;;;;;;;6.05;3.38;;;;;;;14.71;96.51;97332.13;5113880;28;20026;-81
2021/06/14 02:20:56;;;;;;;4.40;2.90;;;;;;;14.68;96.10;97332.41;5096572;28;20061;-81
2021/06/14 02:23:21;;;;;;;6.97;3.67;;;;;;;14.75;97.53;97347.06;5112690;28;20027;-80
2021/06/14 02:25:47;;;;;;;4.63;3.28;;;;;;;14.65;98.82;97347.81;5114776;28;20015;-81
2021/06/14 02:28:13;;;;;;;7.63;4.90;;;;;;;14.57;98.48;97326.06;5113582;28;20623;-81
2021/06/14 02:30:38;;;;;;;6.30;4.55;;;;;;;14.59;99.05;97331.31;5113705;28;20069;-81
2021/06/14 02:33:05;;;;;;;8.40;3.70;;;;;;;14.46;96.22;97325.22;5114551;28;20495;-81
2021/06/14 02:35:30;;;;;;;8.65;3.53;;;;;;;14.49;100.00;97341.09;5113655;28;20035;-80
2021/06/14 02:38:02;;;;;;;9.95;4.22;;;;;;;14.43;100.00;97330.84;5114560;28;20024;-81
2021/06/14 02:40:30;;;;;;;10.37;4.47;;;;;;;14.53;100.00;97353.34;5113154;28;20050;-80
2021/06/14 02:42:58;;;;;;;10.40;5.05;;;;;;;14.29;100.00;97320.31;5113481;28;20047;-80
2021/06/14 02:45:26;;;;;;;19.20;4.90;;;;;;;14.41;100.00;97343.56;5113431;28;20114;-80
2021/06/14 02:47:52;;;;;;;6.70;4.18;;;;;;;14.29;100.00;97325.69;5113458;28;20102;-81
2021/06/14 02:50:20;;;;;;;11.57;3.80;;;;;;;14.32;100.00;97344.28;5113143;28;20028;-80
2021/06/14 02:52:47;;;;;;;10.38;3.83;;;;;;;14.34;100.00;97351.28;5112792;28;20457;-80
2021/06/14 02:55:17;;;;;;;12.75;3.63;;;;;;;14.18;100.00;97331.91;5114367;28;20035;-81
2021/06/14 02:57:52;;;;;;;6.07;3.58;;;;;;;14.23;100.00;97340.50;5104387;28;20023;-81
2021/06/14 03:00:19;;;;;;;7.18;3.20;;;;;;;14.07;97.53;97307.72;5112957;28;20553;-80
2021/06/14 03:02:47;;;;;;;5.25;3.45;;;;;;;14.16;97.94;97333.88;5095870;28;20027;-80
2021/06/14 03:05:13;;;;;;;8.77;3.40;;;;;;;14.12;98.88;97337.78;5113988;28;20031;-81
2021/06/14 03:07:39;;;;;;;4.95;3.50;;;;;;;13.97;100.00;97318.34;5095719;28;20067;-81
2021/06/14 03:10:07;;;;;;;6.97;3.70;;;;;;;14.15;100.00;97342.91;5095582;28;20563;-80
2021/06/14 03:12:32;;;;;;;10.00;4.35;;;;;;;14.17;99.55;97334.75;5113780;27;20027;-80
2021/06/14 03:14:58;;;;;;;7.30;3.70;;;;;;;14.22;96.07;97332.53;5096180;28;20038;-81
2021/06/14 03:17:24;;;;;;;10.65;4.32;;;;;;;14.22;95.62;97336.09;5112685;28;20023;-80
2021/06/14 03:19:52;;;;;;;9.95;3.53;;;;;;;14.27;97.80;97346.50;5112546;28;20087;-80
2021/06/14 03:22:18;;;;;;;23.30;8.88;;;;;;;14.35;99.01;97350.31;5112715;28;20475;-80
2021/06/14 03:24:43;;;;;;;22.92;11.80;;;;;;;14.49;100.00;97354.56;5095368;28;20055;-81
2021/06/14 03:27:10;;;;;;;6.38;3.20;;;;;;;14.52;94.02;97357.88;5112455;28;20498;-81
2021/06/14 03:29:37;;;;;;;14.38;5.30;;;;;;;14.46;97.11;97341.34;5112966;28;20484;-81
2021/06/14 03:32:03;;;;;;;18.48;6.38;;;;;;;14.57;97.31;97344.91;5112438;28;20471;-80
2021/06/14 03:34:30;;;;;;;21.88;9.20;;;;;;;14.77;98.42;97351.34;5112248;28;20040;-80
2021/06/14 03:36:57;;;;;;;15.00;6.03;;;;;;;14.76;100.00;97343.41;5095227;28;20528;-81
2021/06/14 03:39:23;;;;;;;17.15;6.85;;;;;;;14.71;99.69;97324.06;5094870;28;20073;-80
2021/06/14 03:41:50;;;;;;;22.50;6.93;;;;;;;14.92;99.62;97341.19;5104721;28;20497;-80
2021/06/14 03:44:17;;;;;;;13.13;5.05;;;;;;;15.03;100.00;97341.13;5112770;28;20133;-81
2021/06/14 03:46:42;;;;;;;8.80;4.43;;;;;;;15.17;98.45;97359.69;5092707;28;20548;-82
2021/06/14 03:49:08;;;;;;;18.67;5.05;;;;;;;15.12;98.55;97329.59;5110676;28;20031;-80
2021/06/14 03:51:34;;;;;;;9.98;5.70;;;;;;;15.23;97.24;97337.59;5092831;28;20020;-80
2021/06/14 03:54:00;;;;;;;11.00;3.95;;;;;;;15.37;95.83;97348.09;5111755;28;20450;-78
2021/06/14 03:56:33;;;;;;;9.38;4.13;;;;;;;15.44;94.68;97324.19;5110355;28;20043;-81
2021/06/14 03:58:59;;;;;;;12.68;4.10;;;;;;;15.56;91.67;97320.47;5093219;28;20034;-79
2021/06/14 04:01:25;;;;;;;13.55;4.72;;;;;;;15.46;90.47;97314.13;5118896;28;20024;-78
2021/06/14 04:06:29;;;;;;;7.07;3.83;;;;;;;15.90;88.62;97340.00;5111626;28;20020;-80
2021/06/14 04:08:54;;;;;;;5.80;3.65;;;;;;;15.93;87.86;97326.25;5109236;28;20024;-79
2021/06/14 04:11:20;;;;;;;10.15;3.80;;;;;;;16.08;87.66;97336.56;5108622;28;20030;-78
2021/06/14 04:13:49;;;;;;;19.52;4.30;;;;;;;16.17;88.80;97341.16;5110181;28;20042;-83
2021/06/14 04:16:15;;;;;;;9.20;3.78;;;;;;;16.26;87.24;97332.25;5091732;28;20042;-79
2021/06/14 04:18:41;;;;;;;7.45;3.45;;;;;;;16.26;86.24;97318.75;5091577;28;20036;-78
2021/06/14 04:21:06;;;;;;;14.82;8.30;;;;;;;16.43;85.73;97338.81;5108775;28;20077;-78
2021/06/14 04:23:32;;;;;;;8.90;4.15;;;;;;;16.53;82.67;97336.16;5111081;28;20376;-79
2021/06/14 04:25:57;;;;;;;7.28;3.10;;;;;;;16.64;82.84;97336.13;5111018;28;20588;-76
2021/06/14 04:28:23;;;;;;;8.80;4.18;;;;;;;16.73;83.07;97341.50;5111971;28;20031;-76
2021/06/14 04:30:49;;;;;;;8.18;3.47;;;;;;;16.74;81.01;97353.19;5110669;28;20023;-77
2021/06/14 04:33:14;;;;;;;7.65;3.22;;;;;;;16.72;80.46;97357.88;5111764;28;20031;-77
2021/06/14 04:35:40;;;;;;;8.00;3.33;;;;;;;16.79;80.62;97354.50;5110856;28;20024;-78
2021/06/14 04:38:05;;;;;;;6.10;3.10;;;;;;;16.82;79.99;97349.81;5111411;28;20030;-78
2021/06/14 04:40:31;;;;;;;8.93;3.60;;;;;;;16.94;82.20;97349.56;5110494;28;20031;-78
2021/06/14 04:42:56;;;;;;;19.67;5.30;;;;;;;16.92;84.56;97345.28;5110774;28;20467;-77
2021/06/14 04:45:23;;;;;;;17.25;4.85;;;;;;;16.93;83.31;97339.72;5111388;28;20030;-77
2021/06/14 04:47:49;;;;;;;10.00;5.10;;;;;;;16.94;84.24;97346.84;5110498;28;20016;-78
2021/06/14 04:50:16;;;;;;;25.38;4.70;;;;;;;17.17;84.37;97364.50;5110981;28;20089;-77
2021/06/14 04:52:42;;;;;;;11.05;3.85;;;;;;;17.16;83.10;97351.16;5110887;28;20030;-77
2021/06/14 04:55:08;;;;;;;8.80;4.03;;;;;;;17.15;82.70;97360.25;5110243;28;20027;-77
2021/06/14 04:57:34;;;;;;;15.85;4.15;;;;;;;17.02;84.87;97343.44;5110343;28;20169;-76
2021/06/14 04:59:59;;;;;;;12.55;4.25;;;;;;;17.09;86.16;97360.81;5110089;28;20110;-76
2021/06/14 05:02:25;;;;;;;14.40;7.70;;;;;;;17.07;88.38;97363.63;5111684;28;20028;-78
2021/06/14 05:04:50;;;;;;;21.17;4.55;;;;;;;17.11;86.91;97348.00;5111530;28;20026;-76
2021/06/14 05:07:16;;;;;;;18.73;4.55;;;;;;;17.44;86.52;97357.59;5111308;28;20122;-76
2021/06/14 05:09:42;;;;;;;13.77;4.80;;;;;;;19.42;77.47;97358.06;5110494;28;20012;-79
2021/06/14 05:12:08;;;;;;;11.63;4.97;;;;;;;21.76;65.97;97363.13;5109970;28;20035;-79
2021/06/14 05:14:34;;;;;;;9.65;4.28;;;;;;;24.54;55.14;97357.00;5110954;28;20024;-79
2021/06/14 05:16:59;;;;;;;11.07;3.83;;;;;;;26.27;47.51;97380.72;5111693;28;20023;-79
2021/06/14 05:19:25;;;;;;;6.78;3.53;;;;;;;27.80;43.46;97384.25;5107318;28;20088;-79
2021/06/14 05:21:50;;;;;;;10.57;3.40;;;;;;;29.11;40.61;97376.09;5109451;28;20027;-79
2021/06/14 05:24:16;;;;;;;9.88;3.78;;;;;;;30.03;38.30;97389.53;5107901;28;20026;-80
2021/06/14 05:26:41;;;;;;;19.27;6.43;;;;;;;28.35;40.21;97378.47;5090764;28;20478;-79
2021/06/14 05:29:07;;;;;;;15.15;4.80;;;;;;;26.08;43.07;97381.38;5108687;28;20106;-78
2021/06/14 05:31:33;;;;;;;7.80;3.35;;;;;;;24.64;46.32;97379.47;5107687;28;20024;-79
2021/06/14 05:33:58;;;;;;;8.88;3.75;;;;;;;23.46;47.29;97374.59;5108806;28;20065;-79
2021/06/14 05:36:25;;;;;;;18.80;5.28;;;;;;;22.31;50.91;97360.59;5107350;28;20056;-78
2021/06/14 05:38:50;;;;;;;4.13;2.85;;;;;;;21.87;50.19;97366.38;5107531;28;20071;-78
2021/06/14 05:41:16;;;;;;;3.22;2.42;;;;;;;21.88;50.32;97361.78;5107696;28;20047;-78
2021/06/14 05:43:42;;;;;;;12.55;5.03;;;;;;;22.20;52.46;97377.31;5107333;28;20020;-78
2021/06/14 05:46:07;;;;;;;8.45;3.53;;;;;;;21.47;54.21;97352.75;5108843;28;20032;-78
2021/06/14 05:48:33;;;;;;;14.68;3.58;;;;;;;21.76;53.70;97374.88;5108771;28;20031;-78
2021/06/14 05:50:58;;;;;;;4.18;2.50;;;;;;;20.77;52.69;97354.84;5109561;28;20055;-78
2021/06/14 05:53:24;;;;;;;9.98;2.95;;;;;;;20.76;52.67;97371.34;5108550;28;20031;-79
2021/06/14 05:55:50;;;;;;;6.97;2.78;;;;;;;20.64;54.09;97345.47;5108629;28;20024;-79
2021/06/14 05:58:16;;;;;;;5.97;2.35;;;;;;;20.76;54.32;97369.47;5109486;28;20027;-77
2021/06/14 06:00:41;;;;;;;6.35;2.78;;;;;;;20.98;52.14;97365.28;5112392;28;20085;-79
2021/06/14 06:03:07;;;;;;;5.18;2.70;;;;;;;21.79;49.85;97373.69;5111070;28;20032;-79
2021/06/14 06:05:33;;;;;;;9.15;3.28;;;;;;;22.28;49.03;97374.56;5111192;28;20038;-79
2021/06/14 06:07:58;;;;;;;6.00;2.30;;;;;;;22.51;46.69;97372.84;5110699;28;20110;-78
2021/06/14 06:10:24;;;;;;;7.50;2.30;;;;;;;22.45;47.78;97370.81;5111074;28;20545;-78
2021/06/14 06:12:50;;;;;;;9.10;4.68;;;;;;;22.11;47.28;97363.72;5094518;28;20020;-78
2021/06/14 06:15:17;;;;;;;16.60;2.88;;;;;;;22.93;46.22;97375.31;5112341;28;20427;-78
2021/06/14 06:17:44;;;;;;;15.90;3.03;;;;;;;23.22;45.42;97386.47;5111879;28;20065;-78
2021/06/14 06:20:12;;;;;;;6.45;2.75;;;;;;;23.20;45.34;97383.03;5094359;28;20028;-78
2021/06/14 06:22:38;;;;;;;17.80;4.30;;;;;;;23.02;46.23;97371.53;5112781;28;20540;-78
2021/06/14 06:25:16;;;;;;;7.47;2.60;;;;;;;23.53;44.72;97370.13;5110929;28;20020;-78
2021/06/14 06:27:41;;;;;;;5.90;2.53;;;;;;;24.09;44.14;97361.47;5112163;28;20027;-78
2021/06/14 06:30:08;;;;;;;4.97;2.25;;;;;;;25.92;39.57;97367.91;5112400;28;20426;-78
2021/06/14 06:32:34;;;;;;;4.00;2.67;;;;;;;26.84;37.54;97355.03;5110404;28;20030;-78
2021/06/14 06:34:59;;;;;;;8.77;2.85;;;;;;;26.71;38.76;97343.91;5110942;28;20406;-79
2021/06/14 06:37:25;;;;;;;7.63;2.40;;;;;;;26.81;36.39;97342.56;5108929;28;20098;-79
2021/06/14 06:39:50;;;;;;;7.75;2.22;;;;;;;28.17;34.06;97358.13;5110208;28;20499;-79
2021/06/14 06:42:16;;;;;;;4.32;2.35;;;;;;;27.29;35.73;97364.56;5093584;28;20042;-79
2021/06/14 06:44:42;;;;;;;5.47;2.50;;;;;;;26.31;37.71;97359.22;5110072;28;20034;-79
2021/06/14 06:47:07;;;;;;;5.93;2.85;;;;;;;25.38;39.99;97361.16;5110364;28;20441;-79
2021/06/14 06:49:33;;;;;;;8.95;3.92;;;;;;;25.23;41.63;97363.91;5109986;28;20023;-79
2021/06/14 06:51:59;;;;;;;20.23;13.63;;;;;;;25.20;41.32;97350.59;5110815;28;20035;-78
2021/06/14 06:54:25;;;;;;;5.47;3.17;;;;;;;24.92;41.02;97366.84;5110139;28;20133;-78
2021/06/14 06:56:53;;;;;;;3.90;2.40;;;;;;;24.36;41.65;97367.44;5109940;28;20023;-78
2021/06/14 06:59:19;;;;;;;5.43;2.10;;;;;;;23.87;42.51;97370.53;5110094;28;20047;-79
2021/06/14 07:01:45;;;;;;;3.00;2.35;;;;;;;22.64;44.94;97365.00;5110212;28;20035;-78
2021/06/14 07:04:11;;;;;;;4.47;2.00;;;;;;;22.97;44.00;97355.69;5111321;28;20039;-79
2021/06/14 07:06:37;;;;;;;5.68;4.07;;;;;;;23.52;44.13;97354.75;5111796;27;20027;-79
2021/06/14 07:09:03;;;;;;;8.98;2.33;;;;;;;23.86;42.17;97363.38;5092638;28;20015;-79
2021/06/14 07:11:29;;;;;;;4.22;2.22;;;;;;;23.89;40.96;97345.78;5093891;28;20093;-78
2021/06/14 07:13:56;;;;;;;3.33;2.45;;;;;;;23.52;42.02;97354.75;5092419;28;20035;-79
2021/06/14 07:16:22;;;;;;;3.33;2.30;;;;;;;23.86;42.95;97359.81;5109809;28;20027;-79
2021/06/14 07:18:47;;;;;;;3.20;1.90;;;;;;;23.90;41.28;97364.75;5109620;28;20074;-79
2021/06/14 07:21:13;;;;;;;4.38;1.90;;;;;;;23.94;41.42;97360.59;5109649;28;20031;-79
2021/06/14 07:23:39;;;;;;;4.20;2.30;;;;;;;24.46;43.15;97357.06;5111547;28;20024;-79
2021/06/14 07:26:05;;;;;;;10.25;2.50;;;;;;;25.10;39.65;97341.84;5109651;28;20104;-78
2021/06/14 07:28:33;;;;;;;3.17;1.75;;;;;;;25.19;38.27;97327.88;5109490;28;20108;-78
2021/06/14 07:31:01;;;;;;;4.00;1.90;;;;;;;25.92;38.15;97337.75;5092485;28;20046;-79
2021/06/14 07:33:27;;;;;;;11.68;2.40;;;;;;;26.76;37.20;97345.00;5092421;28;20028;-79
2021/06/14 07:35:53;;;;;;;9.27;2.60;;;;;;;27.56;36.25;97355.44;5110512;28;20040;-79
2021/06/14 07:38:19;;;;;;;5.30;2.22;;;;;;;26.50;34.41;97327.53;5109286;28;20050;-79
2021/06/14 07:40:45;;;;;;;11.27;5.97;;;;;;;26.67;36.48;97337.16;5110532;28;20027;-79
2021/06/14 07:43:12;;;;;;;14.85;4.30;;;;;;;26.72;36.10;97351.97;5105251;28;20020;-80
2021/06/14 07:45:39;;;;;;;8.63;2.25;;;;;;;26.74;35.75;97352.59;5092262;28;20080;-80
2021/06/14 07:48:05;;;;;;;3.38;2.00;;;;;;;26.64;35.18;97332.88;5091918;28;20061;-79
2021/06/14 07:50:31;;;;;;;5.50;2.00;;;;;;;27.31;36.98;97357.84;5109372;28;20436;-79
2021/06/14 07:52:57;;;;;;;4.15;2.33;;;;;;;27.57;33.62;97321.38;5110110;28;20463;-79
2021/06/14 07:55:23;;;;;;;23.80;10.65;;;;;;;27.13;36.15;97335.56;5108704;28;20088;-79
2021/06/14 07:57:49;;;;;;;5.72;2.15;;;;;;;26.54;36.90;97345.28;5108744;28;20475;-79
2021/06/14 08:00:15;;;;;;;11.45;2.80;;;;;;;26.22;37.62;97353.03;5091675;28;20032;-79
2021/06/14 08:02:41;;;;;;;9.52;2.33;;;;;;;25.30;37.50;97343.78;5109173;28;20036;-79
2021/06/14 08:05:09;;;;;;;3.40;1.70;;;;;;;24.40;38.02;97338.66;5109493;28;20478;-79
2021/06/14 08:07:34;;;;;;;9.77;2.70;;;;;;;23.90;39.28;97358.41;5108883;28;20023;-79
2021/06/14 08:10:04;;;;;;;8.80;2.25;;;;;;;23.70;40.93;97364.34;5108435;28;20034;-79
2021/06/14 08:12:32;;;;;;;5.15;2.40;;;;;;;23.36;40.20;97347.47;5108756;28;20110;-79
2021/06/14 08:14:58;;;;;;;5.40;2.08;;;;;;;23.91;41.23;97355.47;5108428;28;20035;-79
2021/06/14 08:17:25;;;;;;;12.85;4.18;;;;;;;24.25;41.45;97361.38;5109865;28;20080;-79
2021/06/14 08:19:59;;;;;;;7.25;2.42;;;;;;;24.54;40.39;97357.00;5108178;28;20028;-79
2021/06/14 08:22:37;;;;;;;10.45;4.40;;;;;;;24.61;37.99;97338.81;5092261;28;20027;-79
2021/06/14 08:25:09;;;;;;;6.38;2.55;;;;;;;24.50;37.92;97344.72;5109589;28;20035;-79
2021/06/14 08:27:37;;;;;;;3.42;2.10;;;;;;;24.48;38.70;97349.53;5108847;28;20038;-79
2021/06/14 08:30:06;;;;;;;4.70;1.90;;;;;;;24.32;39.21;97325.94;5109802;28;20036;-79
2021/06/14 08:32:31;;;;;;;19.77;2.45;;;;;;;24.17;40.81;97349.69;5109532;28;20027;-79
2021/06/14 08:34:57;;;;;;;6.45;2.25;;;;;;;23.46;39.81;97352.75;5108312;28;20039;-79
2021/06/14 08:37:23;;;;;;;9.77;2.42;;;;;;;23.08;44.03;97355.28;5109247;28;20107;-79
2021/06/14 08:39:49;;;;;;;8.18;2.65;;;;;;;23.13;44.12;97357.50;5109316;28;20070;-79
2021/06/14 08:42:15;;;;;;;8.95;3.78;;;;;;;22.84;43.91;97349.09;5091375;28;20138;-79
2021/06/14 08:44:41;;;;;;;19.45;3.63;;;;;;;;;;5108044;28;20028;-78
2021/06/14 08:47:08;;;;;;;7.40;2.53;;;;;;;21.93;45.56;97332.22;5109041;28;20035;-79
2021/06/14 08:49:35;;;;;;;4.53;2.15;;;;;;;21.82;44.40;97313.44;5108472;28;20031;-79
2021/06/14 08:52:01;;;;;;;4.95;2.67;;;;;;;22.00;44.92;97333.22;5108222;28;20065;-79
2021/06/14 08:54:27;;;;;;;10.30;2.10;;;;;;;22.63;42.34;97314.19;5107745;28;20028;-79
2021/06/14 08:56:54;;;;;;;9.63;2.78;;;;;;;24.00;43.04;97340.72;5108122;28;20027;-79
2021/06/14 08:59:19;;;;;;;2.00;1.80;;;;;;;25.62;40.70;97342.53;5090935;28;20073;-79
2021/06/14 09:01:45;;;;;;;5.53;2.00;;;;;;;27.43;33.77;97317.75;5107814;28;20039;-78
2021/06/14 09:04:11;;;;;;;8.50;2.15;;;;;;;29.52;34.32;97304.94;5108305;28;20047;-79
2021/06/14 09:06:36;;;;;;;4.45;2.13;;;;;;;29.40;30.59;97303.94;5090996;28;20031;-79
2021/06/14 09:09:07;;;;;;;10.90;2.20;;;;;;;28.58;31.93;97317.47;5109192;28;20547;-79
2021/06/14 09:11:35;;;;;;;6.43;1.90;;;;;;;28.40;33.55;97331.88;5091049;28;20439;-79
2021/06/14 09:14:01;;;;;;;7.03;2.10;;;;;;;26.90;34.15;97335.84;5107864;28;20038;-78
2021/06/14 09:16:31;;;;;;;7.93;3.55;;;;;;;25.47;36.53;97338.09;5108192;28;20486;-79
2021/06/14 09:18:58;;;;;;;11.48;3.85;;;;;;;24.90;38.60;97341.56;5105447;28;20127;-78
2021/06/14 09:21:29;;;;;;;9.38;2.92;;;;;;;24.10;40.01;97346.78;5110633;28;20028;-79
2021/06/14 09:23:58;;;;;;;8.57;3.60;;;;;;;23.70;40.98;97341.66;5111093;28;20027;-78
2021/06/14 09:26:32;;;;;;;12.45;4.47;;;;;;;23.47;41.48;97349.81;5110053;28;20024;-78
2021/06/14 09:29:03;;;;;;;31.40;16.38;;;;;;;23.57;41.92;97334.06;5111481;28;20442;-78
2021/06/14 09:31:43;;;;;;;22.13;14.05;;;;;;;24.04;42.52;97331.13;5111405;28;20027;-79
2021/06/14 09:34:12;;;;;;;11.50;3.22;;;;;;;24.57;40.71;97318.34;5096966;28;20395;-79
2021/06/14 09:36:39;;;;;;;4.72;2.40;;;;;;;25.13;39.22;97336.81;5114208;28;20070;-79
2021/06/14 09:39:15;;;;;;;8.75;5.50;;;;;;;25.01;39.31;97321.91;5113607;28;20052;-79
2021/06/14 09:41:47;;;;;;;4.38;2.13;;;;;;;24.94;37.28;97326.47;5114094;28;20027;-79
2021/06/14 09:44:13;;;;;;;7.43;2.30;;;;;;;24.30;40.13;97349.03;5113798;28;20110;-79
2021/06/14 09:46:39;;;;;;;4.43;2.20;;;;;;;23.98;38.94;97344.69;5114053;28;20127;-79
2021/06/14 09:49:05;;;;;;;14.50;2.47;;;;;;;23.75;43.62;97341.94;5114068;28;20038;-78
2021/06/14 09:51:35;;;;;;;4.53;1.80;;;;;;;23.93;40.03;97334.31;5097089;28;20509;-80
2021/06/14 09:54:02;;;;;;;14.38;2.60;;;;;;;24.06;41.32;97345.44;5114988;28;20051;-79
2021/06/14 09:56:36;;;;;;;6.40;2.20;;;;;;;23.99;41.06;97328.13;5114881;28;20019;-79
2021/06/14 09:59:03;;;;;;;8.85;2.20;;;;;;;23.97;40.30;97326.56;5096954;28;20064;-79
2021/06/14 10:01:31;;;;;;;4.70;1.92;;;;;;;24.34;39.29;97328.47;5113487;28;20024;-79
2021/06/14 10:03:58;;;;;;;8.98;2.03;;;;;;;25.10;39.59;97337.19;5113474;28;20067;-79
2021/06/14 10:06:43;;;;;;;9.45;2.45;;;;;;;26.57;38.15;97332.03;5113523;28;20059;-79
2021/06/14 10:09:15;;;;;;;7.65;3.58;;;;;;;27.39;37.68;97335.66;5113559;28;20061;-78
2021/06/14 10:11:43;;;;;;;4.07;1.98;;;;;;;26.06;35.25;97323.13;5096484;28;20066;-79
2021/06/14 10:14:20;;;;;;;17.65;8.73;;;;;;;25.85;36.94;97345.91;5113341;28;20066;-79
2021/06/14 10:16:48;;;;;;;13.40;2.60;;;;;;;24.69;39.97;97355.13;5114994;27;20020;-79
2021/06/14 10:19:16;;;;;;;78.28;6.28;;;;;;;23.43;49.40;97356.69;5114408;28;20119;-79
2021/06/14 10:21:44;;;;;;;29.23;4.53;;;;;;;22.32;60.44;97379.53;5113535;28;20537;-77
2021/06/14 10:24:15;;;;;;;24.15;5.03;;;;;;;21.13;71.05;97366.44;5113150;28;20030;-76
2021/06/14 10:26:45;;;;;;;6.20;2.05;;;;;;;20.18;70.30;97377.38;5113100;28;20023;-78
2021/06/14 10:29:14;;;;;;;0.00;0.00;;;;;;;18.54;74.74;97355.16;5112811;28;20049;-75
2021/06/14 10:31:41;;;;;;;0.20;0.20;;;;;;;17.25;67.92;97328.69;5102319;28;20156;-75
2021/06/14 10:34:07;;;;;;;0.47;0.47;;;;;;;16.90;81.17;97331.03;5111373;28;20059;-74
2021/06/14 10:36:33;;;;;;;1.10;0.60;;;;;;;16.95;84.01;97336.91;5109770;28;20567;-75
2021/06/14 10:39:01;;;;;;;0.20;0.20;;;;;;;17.23;79.95;97341.47;5109681;28;20058;-74
2021/06/14 10:41:27;;;;;;;0.00;0.00;;;;;;;17.13;79.01;97349.59;5109484;28;20548;-75
2021/06/14 10:43:53;;;;;;;0.20;0.20;;;;;;;17.55;77.34;97342.09;5109364;28;20106;-75
2021/06/14 10:46:22;;;;;;;0.47;0.30;;;;;;;18.06;77.60;97347.13;5109714;28;20079;-75
2021/06/14 10:48:53;;;;;;;0.30;0.20;;;;;;;18.28;71.67;97329.69;5111098;28;20038;-75
2021/06/14 10:51:20;;;;;;;1.77;0.95;;;;;;;18.20;82.52;97338.56;5093008;28;20040;-75
2021/06/14 10:53:52;;;;;;;0.10;0.10;;;;;;;18.21;79.46;97342.13;5092592;28;20433;-74
2021/06/14 10:56:23;;;;;;;0.98;0.80;;;;;;;18.20;81.01;97340.41;5110918;28;20521;-75
2021/06/14 10:59:00;;;;;;;0.50;0.30;;;;;;;18.27;79.05;97328.00;5092600;28;20024;-75
2021/06/14 11:01:32;;;;;;;0.55;0.55;;;;;;;18.18;82.50;97335.13;5110789;28;20482;-74
2021/06/14 11:03:57;;;;;;;;;;;;;;;18.29;82.68;97332.25;5111349;28;20512;-75
2021/06/14 11:06:37;;;;;;;1.40;0.55;;;;;;;18.15;79.79;97313.75;5110650;27;19911;-75
2021/06/14 11:09:09;;;;;;;1.27;1.00;;;;;;;18.47;80.96;97321.50;5109641;28;20114;-74
2021/06/14 11:11:54;;;;;;;0.25;0.25;;;;;;;18.79;80.18;97321.09;5110395;28;20490;-75
2021/06/14 11:14:40;;;;;;;0.10;0.10;;;;;;;19.30;80.86;97331.28;5109538;28;20080;-74
2021/06/14 11:17:20;;;;;;;0.03;0.03;;;;;;;19.71;78.01;97327.13;5103644;28;20027;-76
2021/06/14 11:20:08;;;;;;;1.00;0.65;;;;;;;19.88;76.70;97335.25;5109625;28;20020;-76
2021/06/14 11:22:39;;;;;;;1.85;0.82;;;;;;;19.73;82.41;97339.53;5109716;28;20050;-76
2021/06/14 11:25:41;;;;;;;0.88;0.55;;;;;;;19.11;80.98;97331.44;5110543;28;20490;-76
2021/06/14 11:28:10;;;;;;;1.30;1.07;;;;;;;18.03;84.30;97320.34;5095341;28;20044;-75
2021/06/14 11:30:41;;;;;;;0.68;0.55;;;;;;;17.60;94.39;97318.16;5108772;28;20497;-75
2021/06/14 11:33:09;;;;;;;0.53;0.50;;;;;;;17.42;94.89;97308.16;5109103;28;20041;-75
2021/06/14 11:35:34;;;;;;;1.13;0.60;;;;;;;16.91;97.64;97279.56;5109866;28;20160;-75
2021/06/14 11:38:03;;;;;;;0.60;0.45;;;;;;;16.80;94.05;97288.66;5084525;28;20036;-76